This is the latest recevied weather packets stored in our database for station/object OK1FET-4. If no packets are shown the sender has not sent any weather packets the latest 1 day(s).
| Time | Temp. | Humidity | Pressure | Rain* | Wind** | Luminosity | Snow |
|---|---|---|---|---|---|---|---|
| 1777980867 | 28.33° C | 83% | 1007.4 hPa | - | 0.89 m/s, 48° | - | - |
| 1777980867 | 28.33° C | 83% | 1007.4 hPa | - | 0.89 m/s, 48° | - | - |
| 1777980867 | 28.33° C | 83% | 1007.4 hPa | - | 0.89 m/s, 48° | - | - |
| 1777980565 | 28.33° C | 83% | 1007.5 hPa | - | 0.89 m/s, 102° | - | - |
| 1777980565 | 28.33° C | 83% | 1007.5 hPa | - | 0.89 m/s, 102° | - | - |
| 1777980565 | 28.33° C | 83% | 1007.5 hPa | - | 0.89 m/s, 102° | - | - |
| 1777980263 | 27.78° C | 82% | 1007.6 hPa | - | 1.34 m/s, 31° | - | - |
| 1777980262 | 27.78° C | 82% | 1007.6 hPa | - | 1.34 m/s, 31° | - | - |
| 1777980262 | 27.78° C | 82% | 1007.6 hPa | - | 1.34 m/s, 31° | - | - |
| 1777979960 | 28.33° C | 79% | 1007.7 hPa | - | 0.45 m/s, 74° | - | - |
| 1777979960 | 28.33° C | 79% | 1007.7 hPa | - | 0.45 m/s, 74° | - | - |
| 1777979960 | 28.33° C | 79% | 1007.7 hPa | - | 0.45 m/s, 74° | - | - |
| 1777979658 | 27.22° C | 82% | 1007.7 hPa | - | 0.89 m/s, 114° | - | - |
| 1777979658 | 27.22° C | 82% | 1007.7 hPa | - | 0.89 m/s, 114° | - | - |
| 1777979356 | 27.22° C | 82% | 1007.7 hPa | - | 1.34 m/s, 59° | - | - |
| 1777979356 | 27.22° C | 82% | 1007.7 hPa | - | 1.34 m/s, 59° | - | - |
| 1777979356 | 27.22° C | 82% | 1007.7 hPa | - | 1.34 m/s, 59° | - | - |
| 1777979054 | 27.22° C | 83% | 1007.7 hPa | - | 0.45 m/s, 119° | - | - |
| 1777979054 | 27.22° C | 83% | 1007.7 hPa | - | 0.45 m/s, 119° | - | - |
| 1777978752 | 26.67° C | 82% | 1007.8 hPa | - | 1.34 m/s, 83° | - | - |
| 1777978752 | 26.67° C | 82% | 1007.8 hPa | - | 1.34 m/s, 83° | - | - |
| 1777978752 | 26.67° C | 82% | 1007.8 hPa | - | 1.34 m/s, 83° | - | - |
| 1777978450 | 26.67° C | 81% | 1007.9 hPa | - | 1.34 m/s, 21° | - | - |
| 1777978450 | 26.67° C | 81% | 1007.9 hPa | - | 1.34 m/s, 21° | - | - |
| 1777978148 | 27.22° C | 81% | 1007.9 hPa | - | 0.89 m/s, 52° | - | - |
* Rain since midnight (hover to see other rain measurements)
** Current wind speed in m/s (hover to see current wind gust speed)